createdAt,value
2019-05-30T09:36:13.117Z,21.70
2019-05-30T09:38:35.195Z,21.50
2019-05-30T09:41:04.689Z,21.20
2019-05-30T09:43:34.005Z,21.10
2019-05-30T09:46:37.902Z,21.00
2019-05-30T09:49:07.861Z,20.80
2019-05-30T09:51:45.282Z,20.70
2019-05-30T09:54:14.786Z,20.30
2019-05-30T09:56:45.005Z,19.80
2019-05-30T09:59:14.486Z,19.60
2019-05-30T10:01:57.227Z,19.50
2019-05-30T10:04:26.735Z,19.40
2019-05-30T10:06:56.152Z,19.30
2019-05-30T10:09:25.481Z,19.60
2019-05-30T10:11:55.511Z,19.30
2019-05-30T10:14:38.217Z,19.60
2019-05-30T10:19:54.594Z,20.30
2019-05-30T10:22:28.439Z,20.80
2019-05-30T10:24:57.857Z,21.30
2019-05-30T10:30:06.722Z,21.90
2019-05-30T10:32:36.132Z,21.80
2019-05-30T10:35:06.600Z,21.50
2019-05-30T10:37:50.919Z,21.20
2019-05-30T10:40:21.477Z,21.00
2019-05-30T10:42:52.969Z,21.10
2019-05-30T10:50:23.606Z,22.10
2019-05-30T10:52:53.592Z,22.00
2019-05-30T13:19:57.745Z,22.60
2019-05-30T13:49:06.645Z,22.10
2019-05-30T13:52:05.369Z,22.10
2019-05-30T13:54:53.653Z,21.90
2019-05-30T13:57:24.006Z,21.70
2019-05-30T14:10:02.504Z,21.70
2019-05-30T14:12:32.700Z,22.50
2019-05-30T14:15:06.610Z,21.80
2019-05-30T14:17:32.601Z,22.00
2019-05-30T14:20:02.995Z,22.20
2019-05-30T14:22:32.699Z,22.40
2019-05-30T14:25:01.813Z,22.30
2019-05-30T14:27:30.915Z,22.20
2019-05-30T14:30:00.096Z,22.40
2019-05-30T14:32:29.225Z,22.60
2019-05-30T17:40:50.855Z,19.70
2019-05-30T17:43:21.009Z,19.60
2019-05-30T17:45:50.773Z,19.60
2019-05-30T17:48:21.379Z,19.60
2019-05-30T17:50:50.552Z,19.50
2019-05-30T17:53:19.802Z,19.40
2019-05-30T17:55:48.970Z,19.30
2019-05-30T17:58:18.164Z,19.20
2019-05-30T18:00:48.502Z,19.20
2019-05-30T18:03:17.700Z,19.10
2019-05-30T18:05:46.826Z,19.00
2019-05-30T18:08:17.031Z,19.00
2019-05-30T18:10:53.940Z,18.90
2019-05-30T18:13:18.182Z,18.80
2019-05-30T18:15:47.303Z,18.80
2019-05-30T18:18:18.473Z,18.70
2019-05-30T18:20:48.634Z,18.60
